Terminal Aerodrome Forecast
Issued by NWS

Home | Current Version | Previous Version | Text Only | Print | Product List | Glossary On
Versions: 1 2 3 4 5 6 7 8 9 10 11 12 13 14 15 16 17 18 19
309
FTUS43 KJKL 201735
TAFSJS
TAF
KSJS 201735Z 2018/2118 VRB04KT P6SM SCT030 SCT050
     FM210600 00000KT 2SM BR SCT009
     FM210900 00000KT 1/4SM FG BKN005
     FM211300 VRB04KT P6SM SCT040=

USA.gov is the U.S. government's official web portal to all federal, state and local government web resources and services.